Time;durP1;ratioP1;P1;durP2;ratioP2;P2;SDS_P1;SDS_P2;PMS_P1;PMS_P2;Temp;Humidity;BMP_temperature;BMP_pressure;BME280_temperature;BME280_humidity;BME280_pressure;Samples;Min_cycle;Max_cycle;Signal;HPM_P1;HPM_P2
2022/01/22 00:00:20;;;;;;;;;;;;;;;;;;4206611;28;1104;-58
2022/01/22 00:02:45;;;;;;;;;;;;;;;;;;4206386;28;1909;-58
2022/01/22 00:05:05;;;;;;;;;;;;;;;;;;4205940;28;934;-58
2022/01/22 00:07:26;;;;;;;;;;;;;;;;;;4206576;28;1284;-58
2022/01/22 00:09:52;;;;;;;;;;;;;;;;;;4206338;28;1143;-58
2022/01/22 00:12:23;;;;;;;;;;;;;;;;;;4206866;28;1107;-58
2022/01/22 00:14:44;;;;;;;;;;;;;;;;;;4206406;28;1078;-58
2022/01/22 00:17:04;;;;;;;;;;;;;;;;;;4206369;28;901;-58
2022/01/22 00:19:25;;;;;;;;;;;;;;;;;;4206053;28;1305;-58
2022/01/22 00:21:45;;;;;;;;;;;;;;;;;;4206324;28;1031;-58
2022/01/22 00:24:07;;;;;;;;;;;;;;;;;;4206176;28;956;-58
2022/01/22 00:26:28;;;;;;;;;;;;;;;;;;4206365;28;938;-58
2022/01/22 00:28:49;;;;;;;;;;;;;;;;;;4205597;28;1280;-58
2022/01/22 00:31:09;;;;;;;;;;;;;;;;;;4206036;28;943;-58
2022/01/22 00:33:29;;;;;;;;;;;;;;;;;;4205333;28;1270;-58
2022/01/22 00:35:50;;;;;;;;;;;;;;;;;;4206161;28;1016;-59
2022/01/22 00:38:10;;;;;;;;;;;;;;;;;;4205128;28;933;-58
2022/01/22 00:40:30;;;;;;;;;;;;;;;;;;4206085;28;1004;-58
2022/01/22 00:42:50;;;;;;;;;;;;;;;;;;4206061;28;1886;-58
2022/01/22 00:45:10;;;;;;;;;;;;;;;;;;4205067;28;917;-57
2022/01/22 00:47:32;;;;;;;;;;;;;;;;;;4205906;28;933;-58
2022/01/22 00:49:53;;;;;;;;;;;;;;;;;;4205910;28;977;-58
2022/01/22 00:52:13;;;;;;;;;;;;;;;;;;4204910;28;1088;-58
2022/01/22 00:54:34;;;;;;;;;;;;;;;;;;4205906;28;1206;-57
2022/01/22 00:56:54;;;;;;;;;;;;;;;;;;4206092;28;895;-58
2022/01/22 00:59:14;;;;;;;;;;;;;;;;;;4205763;28;934;-58
2022/01/22 01:01:34;;;;;;;;;;;;;;;;;;4205906;28;1011;-58
2022/01/22 01:04:00;;;;;;;;;;;;;;;;;;4204680;28;1982;-58
2022/01/22 01:06:20;;;;;;;;;;;;;;;;;;4205713;28;993;-58
2022/01/22 01:08:40;;;;;;;;;;;;;;;;;;4205792;28;998;-58
2022/01/22 01:11:00;;;;;;;;;;;;;;;;;;4205756;28;952;-57
2022/01/22 01:13:21;;;;;;;;;;;;;;;;;;4204683;28;1008;-58
2022/01/22 01:15:54;;;;;;;;;;;;;;;;;;4233329;28;954;-59
2022/01/22 01:34:11;;;;;;;;;;;;;;;;;;4233108;28;992;-58
2022/01/22 01:36:31;;;;;;;;;;;;;;;;;;4203994;28;950;-58
2022/01/22 01:38:56;;;;;;;;;;;;;;;;;;4204429;28;1071;-58
2022/01/22 01:41:24;;;;;;;;;;;;;;;;;;4204026;28;1127;-58
2022/01/22 01:43:44;;;;;;;;;;;;;;;;;;4204371;28;1910;-58
2022/01/22 01:46:31;;;;;;;;;;;;;;;;;;4205066;28;934;-58
2022/01/22 01:48:51;;;;;;;;;;;;;;;;;;4204124;28;1326;-58
2022/01/22 01:51:12;;;;;;;;;;;;;;;;;;4204373;28;1154;-58
2022/01/22 01:53:48;;;;;;;;;;;;;;;;;;4204227;28;1243;-58
2022/01/22 01:57:26;;;;;;;;;;;;;;;;;;4204505;28;1042;-58
2022/01/22 01:58:52;;;;;;;;;;;;;;;;;;4203422;28;1264;-58
2022/01/22 02:04:00;;;;;;;;;;;;;;;;;;4232205;28;1905;-58
2022/01/22 02:06:21;;;;;;;;;;;;;;;;;;4204183;28;946;-57
2022/01/22 02:08:41;;;;;;;;;;;;;;;;;;4203685;28;1255;-58
2022/01/22 02:11:08;;;;;;;;;;;;;;;;;;4203532;28;1044;-58
2022/01/22 02:14:03;;;;;;;;;;;;;;;;;;4203221;28;998;-58
2022/01/22 02:24:31;;;;;;;;;;;;;;;;;;4232103;28;1996;-58
2022/01/22 02:26:52;;;;;;;;;;;;;;;;;;4203484;28;934;-58
2022/01/22 02:29:18;;;;;;;;;;;;;;;;;;4203726;28;945;-58
2022/01/22 02:32:06;;;;;;;;;;;;;;;;;;4204894;28;1309;-57
2022/01/22 02:34:37;;;;;;;;;;;;;;;;;;4232336;28;904;-57
2022/01/22 02:37:01;;;;;;;;;;;;;;;;;;4203197;28;1125;-58
2022/01/22 02:39:32;;;;;;;;;;;;;;;;;;4203302;28;1507;-58
2022/01/22 02:41:53;;;;;;;;;;;;;;;;;;4204700;28;825;-58
2022/01/22 02:44:21;;;;;;;;;;;;;;;;;;4202902;28;1905;-58
2022/01/22 02:46:43;;;;;;;;;;;;;;;;;;4204356;28;1029;-58
2022/01/22 02:49:03;;;;;;;;;;;;;;;;;;4203173;28;1031;-58
2022/01/22 02:51:24;;;;;;;;;;;;;;;;;;4204419;28;1350;-58
2022/01/22 02:53:44;;;;;;;;;;;;;;;;;;4203475;28;1095;-58
2022/01/22 02:56:05;;;;;;;;;;;;;;;;;;4203381;28;976;-58
2022/01/22 02:58:25;;;;;;;;;;;;;;;;;;4203346;28;817;-58
2022/01/22 03:00:46;;;;;;;;;;;;;;;;;;4203681;28;915;-57
2022/01/22 03:03:07;;;;;;;;;;;;;;;;;;4203344;28;1984;-58
2022/01/22 03:05:27;;;;;;;;;;;;;;;;;;4203469;28;973;-58
2022/01/22 03:07:51;;;;;;;;;;;;;;;;;;4203604;28;1152;-58
2022/01/22 03:10:14;;;;;;;;;;;;;;;;;;4203220;28;1155;-57
2022/01/22 03:13:05;;;;;;;;;;;;;;;;;;4202779;28;1031;-57
2022/01/22 03:15:37;;;;;;;;;;;;;;;;;;4202993;28;1233;-58
2022/01/22 03:18:01;;;;;;;;;;;;;;;;;;4202813;28;930;-58
2022/01/22 03:20:39;;;;;;;;;;;;;;;;;;4231281;28;1100;-58
2022/01/22 03:23:08;;;;;;;;;;;;;;;;;;4204073;28;1910;-58
2022/01/22 03:28:09;;;;;;;;;;;;;;;;;;4206268;28;881;-58
2022/01/22 03:30:29;;;;;;;;;;;;;;;;;;4205647;28;1292;-58
2022/01/22 03:32:52;;;;;;;;;;;;;;;;;;4205947;28;1011;-58
2022/01/22 03:35:25;;;;;;;;;;;;;;;;;;4205484;28;1015;-58
2022/01/22 03:37:46;;;;;;;;;;;;;;;;;;4205684;28;1149;-58
2022/01/22 03:40:06;;;;;;;;;;;;;;;;;;4206066;28;1088;-57
2022/01/22 03:42:26;;;;;;;;;;;;;;;;;;4205830;28;1209;-58
2022/01/22 03:44:47;;;;;;;;;;;;;;;;;;4206605;28;1909;-58
2022/01/22 03:47:08;;;;;;;;;;;;;;;;;;4205683;28;1002;-58
2022/01/22 03:49:28;;;;;;;;;;;;;;;;;;4205841;28;1276;-57
2022/01/22 03:51:49;;;;;;;;;;;;;;;;;;4205419;28;1014;-57
2022/01/22 03:54:09;;;;;;;;;;;;;;;;;;4205785;28;1054;-58
2022/01/22 03:56:30;;;;;;;;;;;;;;;;;;4205684;28;971;-58
2022/01/22 03:59:23;;;;;;;;;;;;;;;;;;4196812;28;1070;-58
2022/01/22 04:04:39;;;;;;;;;;;;;;;;;;4233960;28;1976;-57
2022/01/22 04:09:37;;;;;;;;;;;;;;;;;;4205693;28;1056;-58
2022/01/22 04:11:59;;;;;;;;;;;;;;;;;;4206480;28;1134;-58
2022/01/22 04:14:24;;;;;;;;;;;;;;;;;;4206541;28;832;-58
2022/01/22 04:16:57;;;;;;;;;;;;;;;;;;4233984;28;1167;-58
2022/01/22 04:24:55;;;;;;;;;;;;;;;;;;4206674;28;1987;-58
2022/01/22 04:27:21;;;;;;;;;;;;;;;;;;4206437;28;918;-58
2022/01/22 04:29:41;;;;;;;;;;;;;;;;;;4206049;28;1069;-58
2022/01/22 04:32:01;;;;;;;;;;;;;;;;;;4206506;28;934;-57
2022/01/22 04:34:22;;;;;;;;;;;;;;;;;;4206309;28;925;-57
2022/01/22 04:36:42;;;;;;;;;;;;;;;;;;4206181;28;1008;-58
2022/01/22 04:39:02;;;;;;;;;;;;;;;;;;4205994;28;1045;-58
2022/01/22 04:41:23;;;;;;;;;;;;;;;;;;4206184;28;883;-58
2022/01/22 04:43:44;;;;;;;;;;;;;;;;;;4205963;28;1909;-58
2022/01/22 04:46:13;;;;;;;;;;;;;;;;;;4205047;28;838;-58
2022/01/22 04:48:41;;;;;;;;;;;;;;;;;;4205968;28;1020;-58
2022/01/22 04:56:22;;;;;;;;;;;;;;;;;;4233299;28;1063;-59
2022/01/22 04:58:43;;;;;;;;;;;;;;;;;;4205021;28;981;-58
2022/01/22 05:01:04;;;;;;;;;;;;;;;;;;4207741;28;1581;-57
2022/01/22 05:03:50;;;;;;;;;;;;;;;;;;4212134;28;1901;-57
2022/01/22 05:06:30;;;;;;;;;;;;;;;;;;4209219;28;2988;-58
2022/01/22 05:09:16;;;;;;;;;;;;;;;;;;4218882;28;1150;-58
2022/01/22 05:11:47;;;;;;;;;;;;;;;;;;4204426;28;868;-58
2022/01/22 05:14:08;;;;;;;;;;;;;;;;;;4217963;28;1094;-58
2022/01/22 05:16:29;;;;;;;;;;;;;;;;;;4205392;28;1089;-57
2022/01/22 05:18:55;;;;;;;;;;;;;;;;;;4204713;28;1101;-56
2022/01/22 05:21:18;;;;;;;;;;;;;;;;;;4204558;28;930;-57
2022/01/22 05:23:40;;;;;;;;;;;;;;;;;;4204726;28;1169;-56
2022/01/22 05:26:05;;;;;;;;;;;;;;;;;;4204486;28;838;-56
2022/01/22 05:29:02;;;;;;;;;;;;;;;;;;4204590;28;798;-57
2022/01/22 05:32:17;;;;;;;;;;;;;;;;;;4205509;28;1194;-57
2022/01/22 05:37:36;;;;;;;;;;;;;;;;;;4204264;28;1210;-57
2022/01/22 05:39:56;;;;;;;;;;;;;;;;;;4204501;28;1155;-57
2022/01/22 05:42:17;;;;;;;;;;;;;;;;;;4205536;28;1097;-56
2022/01/22 05:44:38;;;;;;;;;;;;;;;;;;4205199;28;1997;-57
2022/01/22 05:47:02;;;;;;;;;;;;;;;;;;4205561;28;1088;-56
2022/01/22 05:49:25;;;;;;;;;;;;;;;;;;4205006;28;970;-57
2022/01/22 05:51:47;;;;;;;;;;;;;;;;;;4204317;28;1243;-57
2022/01/22 05:59:37;;;;;;;;;;;;;;;;;;4203777;28;1050;-57
2022/01/22 06:01:58;;;;;;;;;;;;;;;;;;4204296;28;1243;-57
2022/01/22 06:04:19;;;;;;;;;;;;;;;;;;4203975;28;1917;-57
2022/01/22 06:06:41;;;;;;;;;;;;;;;;;;4204137;28;955;-56
2022/01/22 06:09:08;;;;;;;;;;;;;;;;;;4203559;28;1088;-57
2022/01/22 06:11:29;;;;;;;;;;;;;;;;;;4204116;28;1057;-56
2022/01/22 06:13:50;;;;;;;;;;;;;;;;;;4232297;28;1360;-57
2022/01/22 06:16:21;;;;;;;;;;;;;;;;;;4203910;28;1062;-57
2022/01/22 06:19:11;;;;;;;;;;;;;;;;;;4202663;28;1105;-56
2022/01/22 06:21:32;;;;;;;;;;;;;;;;;;4232637;28;1039;-57
2022/01/22 06:23:52;;;;;;;;;;;;;;;;;;4205367;28;935;-56
2022/01/22 06:26:13;;;;;;;;;;;;;;;;;;4204960;28;876;-57
2022/01/22 06:28:33;;;;;;;;;;;;;;;;;;4203856;28;972;-56
2022/01/22 06:30:54;;;;;;;;;;;;;;;;;;4203868;28;967;-56
2022/01/22 06:33:16;;;;;;;;;;;;;;;;;;4233289;28;889;-56
2022/01/22 06:35:37;;;;;;;;;;;;;;;;;;4203782;28;1023;-57
2022/01/22 06:37:59;;;;;;;;;;;;;;;;;;4203840;28;1015;-57
2022/01/22 06:43:37;;;;;;;;;;;;;;;;;;4204714;28;929;-57
2022/01/22 06:46:18;;;;;;;;;;;;;;;;;;4203636;28;1156;-57
2022/01/22 06:48:51;;;;;;;;;;;;;;;;;;4203575;28;1150;-57
2022/01/22 06:51:22;;;;;;;;;;;;;;;;;;4203779;28;1275;-57
2022/01/22 06:53:43;;;;;;;;;;;;;;;;;;4231849;28;937;-57
2022/01/22 06:56:05;;;;;;;;;;;;;;;;;;4203631;28;1265;-57
2022/01/22 06:58:54;;;;;;;;;;;;;;;;;;4202147;28;1036;-57
2022/01/22 07:01:14;;;;;;;;;;;;;;;;;;4203767;28;1076;-56
2022/01/22 07:03:48;;;;;;;;;;;;;;;;;;4206488;28;1037;-56
2022/01/22 07:06:21;;;;;;;;;;;;;;;;;;4206407;28;1377;-56
2022/01/22 07:08:41;;;;;;;;;;;;;;;;;;4206381;28;1037;-57
2022/01/22 07:11:03;;;;;;;;;;;;;;;;;;4234877;28;984;-57
2022/01/22 07:13:24;;;;;;;;;;;;;;;;;;4206864;28;919;-56
2022/01/22 07:15:45;;;;;;;;;;;;;;;;;;4206188;28;1490;-57
2022/01/22 07:18:12;;;;;;;;;;;;;;;;;;4206125;28;1044;-56
2022/01/22 07:20:38;;;;;;;;;;;;;;;;;;4234828;28;1240;-57
2022/01/22 07:23:13;;;;;;;;;;;;;;;;;;4206081;28;925;-57
2022/01/22 07:26:02;;;;;;;;;;;;;;;;;;4205408;28;1988;-57
2022/01/22 07:28:33;;;;;;;;;;;;;;;;;;4205682;28;934;-56
2022/01/22 07:30:53;;;;;;;;;;;;;;;;;;4206856;28;1151;-56
2022/01/22 07:33:17;;;;;;;;;;;;;;;;;;4210602;28;1580;-57
2022/01/22 07:35:38;;;;;;;;;;;;;;;;;;4221456;28;2349;-57
2022/01/22 07:38:03;;;;;;;;;;;;;;;;;;4219672;28;1998;-57
2022/01/22 07:40:24;;;;;;;;;;;;;;;;;;4220998;28;1378;-58
2022/01/22 07:42:51;;;;;;;;;;;;;;;;;;4221267;28;1726;-58
2022/01/22 07:45:35;;;;;;;;;;;;;;;;;;4220729;28;1905;-58
2022/01/22 07:48:03;;;;;;;;;;;;;;;;;;4222633;28;1031;-58
2022/01/22 07:50:43;;;;;;;;;;;;;;;;;;4221529;28;1656;-57
2022/01/22 07:53:03;;;;;;;;;;;;;;;;;;4223402;28;1070;-58
2022/01/22 07:55:24;;;;;;;;;;;;;;;;;;4222014;28;1187;-58
2022/01/22 07:57:44;;;;;;;;;;;;;;;;;;4211343;28;2054;-58
2022/01/22 08:00:05;;;;;;;;;;;;;;;;;;4206355;28;1091;-57
2022/01/22 08:02:36;;;;;;;;;;;;;;;;;;4206313;28;935;-57
2022/01/22 08:05:15;;;;;;;;;;;;;;;;;;4206373;28;1919;-58
2022/01/22 08:07:59;;;;;;;;;;;;;;;;;;4218431;28;1488;-57
2022/01/22 08:10:49;;;;;;;;;;;;;;;;;;4216938;28;1624;-58
2022/01/22 08:13:09;;;;;;;;;;;;;;;;;;4220859;28;1591;-58
2022/01/22 08:15:29;;;;;;;;;;;;;;;;;;4222613;28;1570;-58
2022/01/22 08:17:50;;;;;;;;;;;;;;;;;;4221173;28;2071;-57
2022/01/22 08:20:14;;;;;;;;;;;;;;;;;;4218596;28;1553;-58
2022/01/22 08:22:44;;;;;;;;;;;;;;;;;;4221473;28;1983;-58
2022/01/22 08:25:23;;;;;;;;;;;;;;;;;;4221198;28;1909;-58
2022/01/22 08:30:33;;;;;;;;;;;;;;;;;;4219004;28;1766;-57
2022/01/22 08:33:09;;;;;;;;;;;;;;;;;;4218868;28;1354;-58
2022/01/22 08:38:08;;;;;;;;;;;;;;;;;;4221748;28;1098;-57
2022/01/22 08:40:28;;;;;;;;;;;;;;;;;;4221791;28;920;-57
2022/01/22 08:42:50;;;;;;;;;;;;;;;;;;4221702;28;1186;-57
2022/01/22 08:45:11;;;;;;;;;;;;;;;;;;4221586;28;1909;-57
2022/01/22 08:47:32;;;;;;;;;;;;;;;;;;4221561;28;1197;-57
2022/01/22 08:49:53;;;;;;;;;;;;;;;;;;4221103;28;1737;-58
2022/01/22 08:52:15;;;;;;;;;;;;;;;;;;4218850;28;2364;-57
2022/01/22 08:54:37;;;;;;;;;;;;;;;;;;4219335;28;1377;-58
2022/01/22 08:56:58;;;;;;;;;;;;;;;;;;4219625;28;1982;-58
2022/01/22 08:59:18;;;;;;;;;;;;;;;;;;4219707;28;1724;-58
2022/01/22 09:01:41;;;;;;;;;;;;;;;;;;4221205;28;1632;-57
2022/01/22 09:04:22;;;;;;;;;;;;;;;;;;4221164;28;1110;-57
2022/01/22 09:07:01;;;;;;;;;;;;;;;;;;4222620;28;1062;-57
2022/01/22 09:09:50;;;;;;;;;;;;;;;;;;4221557;28;941;-57
2022/01/22 09:12:30;;;;;;;;;;;;;;;;;;4222684;28;1011;-58
2022/01/22 09:15:11;;;;;;;;;;;;;;;;;;4221001;28;1487;-57
2022/01/22 09:17:31;;;;;;;;;;;;;;;;;;4221807;28;914;-57
2022/01/22 09:19:57;;;;;;;;;;;;;;;;;;4221438;28;1083;-57
2022/01/22 09:22:17;;;;;;;;;;;;;;;;;;4220925;28;880;-58
2022/01/22 09:24:41;;;;;;;;;;;;;;;;;;4217407;28;1750;-58
2022/01/22 09:27:06;;;;;;;;;;;;;;;;;;4218463;28;1769;-58
2022/01/22 09:29:28;;;;;;;;;;;;;;;;;;4212318;28;1787;-58
2022/01/22 09:31:48;;;;;;;;;;;;;;;;;;4220690;28;1571;-58
2022/01/22 09:34:25;;;;;;;;;;;;;;;;;;4218669;28;1356;-58
2022/01/22 09:37:04;;;;;;;;;;;;;;;;;;4218391;28;970;-57
2022/01/22 09:39:57;;;;;;;;;;;;;;;;;;4187513;28;957;-58
2022/01/22 09:42:46;;;;;;;;;;;;;;;;;;4205493;28;1018;-58
2022/01/22 09:45:27;;;;;;;;;;;;;;;;;;4208575;28;1909;-57
2022/01/22 09:47:58;;;;;;;;;;;;;;;;;;4220825;28;1047;-58
2022/01/22 09:50:28;;;;;;;;;;;;;;;;;;4220873;28;925;-57
2022/01/22 09:53:12;;;;;;;;;;;;;;;;;;4220834;28;1246;-57
2022/01/22 09:56:00;;;;;;;;;;;;;;;;;;4220589;28;1029;-58
2022/01/22 09:58:40;;;;;;;;;;;;;;;;;;4221522;28;1202;-56
2022/01/22 10:01:20;;;;;;;;;;;;;;;;;;4219821;28;1008;-56
2022/01/22 10:03:41;;;;;;;;;;;;;;;;;;4220652;28;864;-56
2022/01/22 10:06:14;;;;;;;;;;;;;;;;;;4221064;28;1987;-56
2022/01/22 10:08:54;;;;;;;;;;;;;;;;;;4220676;28;1057;-54
2022/01/22 10:11:33;;;;;;;;;;;;;;;;;;4220628;28;930;-54
2022/01/22 10:14:09;;;;;;;;;;;;;;;;;;4221474;28;1029;-54
2022/01/22 10:16:30;;;;;;;;;;;;;;;;;;4221742;28;1081;-55
2022/01/22 10:18:50;;;;;;;;;;;;;;;;;;4221712;28;945;-54
2022/01/22 10:21:10;;;;;;;;;;;;;;;;;;4221309;28;985;-55
2022/01/22 10:23:37;;;;;;;;;;;;;;;;;;4221794;28;1028;-54
2022/01/22 10:26:00;;;;;;;;;;;;;;;;;;4221480;28;1905;-55
2022/01/22 10:28:22;;;;;;;;;;;;;;;;;;4221450;28;976;-54
2022/01/22 10:30:43;;;;;;;;;;;;;;;;;;4221728;28;912;-55
2022/01/22 10:33:09;;;;;;;;;;;;;;;;;;4221578;28;1049;-55
2022/01/22 10:35:49;;;;;;;;;;;;;;;;;;4221747;28;1229;-54
2022/01/22 10:38:28;;;;;;;;;;;;;;;;;;4224404;28;906;-55
2022/01/22 10:40:48;;;;;;;;;;;;;;;;;;4224564;28;958;-54
2022/01/22 10:43:09;;;;;;;;;;;;;;;;;;4224091;28;966;-54
2022/01/22 10:45:31;;;;;;;;;;;;;;;;;;4224391;28;954;-55
2022/01/22 10:47:51;;;;;;;;;;;;;;;;;;4224497;28;1025;-55
2022/01/22 10:50:12;;;;;;;;;;;;;;;;;;4224700;28;1154;-54
2022/01/22 10:52:32;;;;;;;;;;;;;;;;;;4224255;28;937;-54
2022/01/22 10:54:52;;;;;;;;;;;;;;;;;;4224288;28;964;-54
2022/01/22 10:57:13;;;;;;;;;;;;;;;;;;4224061;28;1184;-55
2022/01/22 10:59:33;;;;;;;;;;;;;;;;;;4224021;28;1053;-53
2022/01/22 11:01:53;;;;;;;;;;;;;;;;;;4224150;28;879;-54
2022/01/22 11:04:14;;;;;;;;;;;;;;;;;;4224236;28;1216;-53
2022/01/22 11:06:34;;;;;;;;;;;;;;;;;;4223843;28;1977;-53
2022/01/22 11:08:54;;;;;;;;;;;;;;;;;;4223401;28;1025;-54
2022/01/22 11:11:14;;;;;;;;;;;;;;;;;;4224023;28;981;-53
2022/01/22 11:13:34;;;;;;;;;;;;;;;;;;4223957;28;846;-53
2022/01/22 11:15:54;;;;;;;;;;;;;;;;;;4223821;28;1148;-54
2022/01/22 11:18:15;;;;;;;;;;;;;;;;;;4223946;28;989;-53
2022/01/22 11:20:35;;;;;;;;;;;;;;;;;;4223838;28;1067;-54
2022/01/22 11:22:56;;;;;;;;;;;;;;;;;;4223859;28;1036;-54
2022/01/22 11:25:17;;;;;;;;;;;;;;;;;;4223805;28;1017;-53
2022/01/22 11:27:37;;;;;;;;;;;;;;;;;;4206106;28;1914;-53
2022/01/22 11:29:58;;;;;;;;;;;;;;;;;;4206994;28;934;-54
2022/01/22 11:32:18;;;;;;;;;;;;;;;;;;4207271;28;1094;-53
2022/01/22 11:34:39;;;;;;;;;;;;;;;;;;4206873;28;985;-53
2022/01/22 11:36:59;;;;;;;;;;;;;;;;;;4206942;28;845;-54
2022/01/22 11:39:20;;;;;;;;;;;;;;;;;;4206842;28;1036;-54
2022/01/22 11:41:41;;;;;;;;;;;;;;;;;;4206632;28;1088;-53
2022/01/22 11:44:07;;;;;;;;;;;;;;;;;;4206296;28;1015;-53
2022/01/22 11:46:30;;;;;;;;;;;;;;;;;;4205884;28;1986;-53
2022/01/22 11:48:51;;;;;;;;;;;;;;;;;;4205976;28;1187;-54
2022/01/22 11:51:11;;;;;;;;;;;;;;;;;;4206257;28;969;-53
2022/01/22 11:53:32;;;;;;;;;;;;;;;;;;4206839;28;1291;-53
2022/01/22 11:55:52;;;;;;;;;;;;;;;;;;4206552;28;1000;-53
2022/01/22 11:58:15;;;;;;;;;;;;;;;;;;4207615;28;822;-53
2022/01/22 12:00:38;;;;;;;;;;;;;;;;;;4206810;28;932;-53
2022/01/22 12:02:58;;;;;;;;;;;;;;;;;;4206805;28;827;-53
2022/01/22 12:05:19;;;;;;;;;;;;;;;;;;4206740;28;837;-54
2022/01/22 12:07:40;;;;;;;;;;;;;;;;;;4206413;28;1882;-53
2022/01/22 12:10:15;;;;;;;;;;;;;;;;;;4206708;28;1263;-54
2022/01/22 12:15:15;;;;;;;;;;;;;;;;;;4206399;28;852;-53
2022/01/22 12:17:35;;;;;;;;;;;;;;;;;;4206875;28;1811;-56
2022/01/22 12:20:16;;;;;;;;;;;;;;;;;;4222827;28;1277;-58
2022/01/22 12:22:37;;;;;;;;;;;;;;;;;;4223034;28;938;-56
2022/01/22 12:24:57;;;;;;;;;;;;;;;;;;4223185;28;1589;-56
2022/01/22 12:27:17;;;;;;;;;;;;;;;;;;4222981;28;1906;-56
2022/01/22 12:29:38;;;;;;;;;;;;;;;;;;4223225;28;1152;-56
2022/01/22 12:31:58;;;;;;;;;;;;;;;;;;4223036;28;1087;-56
2022/01/22 12:34:19;;;;;;;;;;;;;;;;;;4223017;28;1161;-56
2022/01/22 12:36:41;;;;;;;;;;;;;;;;;;4222228;28;1168;-56
2022/01/22 12:39:04;;;;;;;;;;;;;;;;;;4222657;28;1084;-56
2022/01/22 12:41:31;;;;;;;;;;;;;;;;;;4223166;28;1055;-56
2022/01/22 12:43:51;;;;;;;;;;;;;;;;;;4222868;28;875;-55
2022/01/22 12:46:12;;;;;;;;;;;;;;;;;;4222883;28;937;-56
2022/01/22 12:48:32;;;;;;;;;;;;;;;;;;4222736;28;1087;-56
2022/01/22 12:50:53;;;;;;;;;;;;;;;;;;4222455;28;1249;-55
2022/01/22 12:53:15;;;;;;;;;;;;;;;;;;4222736;28;1359;-55
2022/01/22 12:56:02;;;;;;;;;;;;;;;;;;4222926;28;962;-56
2022/01/22 12:58:23;;;;;;;;;;;;;;;;;;4222151;28;1028;-56
2022/01/22 13:00:43;;;;;;;;;;;;;;;;;;4221358;28;1110;-56
2022/01/22 13:03:03;;;;;;;;;;;;;;;;;;4222893;28;1026;-53
2022/01/22 13:05:24;;;;;;;;;;;;;;;;;;4222717;28;1364;-53
2022/01/22 13:07:52;;;;;;;;;;;;;;;;;;4221776;28;1933;-53
2022/01/22 13:10:34;;;;;;;;;;;;;;;;;;4222342;28;1317;-53
2022/01/22 13:12:57;;;;;;;;;;;;;;;;;;4222058;28;1350;-53
2022/01/22 13:15:17;;;;;;;;;;;;;;;;;;4221285;28;1126;-54
2022/01/22 13:17:38;;;;;;;;;;;;;;;;;;4222402;28;1115;-53
2022/01/22 13:19:58;;;;;;;;;;;;;;;;;;4221593;28;1273;-54
2022/01/22 13:22:18;;;;;;;;;;;;;;;;;;4222015;28;966;-54
2022/01/22 13:24:39;;;;;;;;;;;;;;;;;;4222269;28;957;-53
2022/01/22 13:27:01;;;;;;;;;;;;;;;;;;4222193;28;2000;-54
2022/01/22 13:29:21;;;;;;;;;;;;;;;;;;4222236;28;941;-53
2022/01/22 13:31:42;;;;;;;;;;;;;;;;;;4222263;28;1467;-53
2022/01/22 13:34:15;;;;;;;;;;;;;;;;;;4222436;28;918;-53
2022/01/22 13:36:49;;;;;;;;;;;;;;;;;;4221115;28;2146;-53
2022/01/22 13:49:51;;;;;;;;;;;;;;;;;;4221939;28;944;-55
2022/01/22 13:52:12;;;;;;;;;;;;;;;;;;4221784;28;956;-54
2022/01/22 13:54:32;;;;;;;;;;;;;;;;;;4220629;28;1609;-54
2022/01/22 13:56:54;;;;;;;;;;;;;;;;;;4222001;28;949;-54
2022/01/22 13:59:15;;;;;;;;;;;;;;;;;;4221884;28;947;-54
2022/01/22 14:01:49;;;;;;;;;;;;;;;;;;4221548;28;965;-54
2022/01/22 14:04:09;;;;;;;;;;;;;;;;;;4221811;28;1175;-54
2022/01/22 14:06:29;;;;;;;;;;;;;;;;;;4221684;28;983;-53
2022/01/22 14:08:49;;;;;;;;;;;;;;;;;;4221740;28;949;-54
2022/01/22 14:11:10;;;;;;;;;;;;;;;;;;4220845;28;1021;-54
2022/01/22 14:13:30;;;;;;;;;;;;;;;;;;4204263;28;982;-53
2022/01/22 14:15:51;;;;;;;;;;;;;;;;;;4204570;28;1002;-53
2022/01/22 14:18:15;;;;;;;;;;;;;;;;;;4204529;28;1012;-54
2022/01/22 14:20:36;;;;;;;;;;;;;;;;;;4215872;28;1345;-54
2022/01/22 14:22:57;;;;;;;;;;;;;;;;;;4221560;28;1368;-54
2022/01/22 14:25:18;;;;;;;;;;;;;;;;;;4221365;28;1273;-54
2022/01/22 14:27:38;;;;;;;;;;;;;;;;;;4221393;28;1913;-54
2022/01/22 14:29:58;;;;;;;;;;;;;;;;;;4221029;28;1074;-54
2022/01/22 14:32:18;;;;;;;;;;;;;;;;;;4221316;28;1290;-53
2022/01/22 14:34:42;;;;;;;;;;;;;;;;;;4221458;28;1099;-55
2022/01/22 14:37:02;;;;;;;;;;;;;;;;;;4221156;28;957;-54
2022/01/22 14:39:30;;;;;;;;;;;;;;;;;;4220727;28;1011;-53
2022/01/22 14:44:31;;;;;;;;;;;;;;;;;;4220889;28;1060;-53
2022/01/22 14:46:53;;;;;;;;;;;;;;;;;;4221647;28;917;-53
2022/01/22 14:49:15;;;;;;;;;;;;;;;;;;4221109;28;1430;-53
2022/01/22 14:51:35;;;;;;;;;;;;;;;;;;4221041;28;1271;-53
2022/01/22 14:53:56;;;;;;;;;;;;;;;;;;4220901;28;1039;-53
2022/01/22 14:56:16;;;;;;;;;;;;;;;;;;4220958;28;939;-54
2022/01/22 14:58:38;;;;;;;;;;;;;;;;;;4221028;28;902;-53
2022/01/22 15:00:58;;;;;;;;;;;;;;;;;;4221046;28;1171;-54
2022/01/22 15:03:18;;;;;;;;;;;;;;;;;;4220400;28;1319;-54
2022/01/22 15:05:39;;;;;;;;;;;;;;;;;;4221159;28;1199;-54
2022/01/22 15:07:59;;;;;;;;;;;;;;;;;;4220925;28;1905;-53
2022/01/22 15:10:20;;;;;;;;;;;;;;;;;;4220959;28;997;-54
2022/01/22 15:12:41;;;;;;;;;;;;;;;;;;4220944;28;973;-55
2022/01/22 15:15:01;;;;;;;;;;;;;;;;;;4220780;28;989;-53
2022/01/22 15:17:31;;;;;;;;;;;;;;;;;;4220797;28;968;-54
2022/01/22 15:19:52;;;;;;;;;;;;;;;;;;4221103;28;1239;-53
2022/01/22 15:22:12;;;;;;;;;;;;;;;;;;4220582;28;836;-53
2022/01/22 15:24:33;;;;;;;;;;;;;;;;;;4224042;28;1180;-55
2022/01/22 15:26:53;;;;;;;;;;;;;;;;;;4224029;28;1004;-53
2022/01/22 15:29:15;;;;;;;;;;;;;;;;;;4223648;28;1918;-54
2022/01/22 15:31:39;;;;;;;;;;;;;;;;;;4224210;28;829;-54
2022/01/22 15:34:12;;;;;;;;;;;;;;;;;;4224072;28;1018;-53
2022/01/22 15:36:33;;;;;;;;;;;;;;;;;;4223534;28;1063;-53
2022/01/22 15:38:53;;;;;;;;;;;;;;;;;;4223908;28;954;-54
2022/01/22 15:41:13;;;;;;;;;;;;;;;;;;4223946;28;935;-54
2022/01/22 15:43:34;;;;;;;;;;;;;;;;;;4223182;28;1687;-54
2022/01/22 15:45:54;;;;;;;;;;;;;;;;;;4223994;28;1047;-53
2022/01/22 15:48:15;;;;;;;;;;;;;;;;;;4223675;28;1985;-54
2022/01/22 15:50:36;;;;;;;;;;;;;;;;;;4223641;28;992;-53
2022/01/22 15:52:57;;;;;;;;;;;;;;;;;;4222673;28;1033;-54
2022/01/22 15:55:18;;;;;;;;;;;;;;;;;;4223772;28;849;-54
2022/01/22 15:57:38;;;;;;;;;;;;;;;;;;4223339;28;1163;-53
2022/01/22 15:59:58;;;;;;;;;;;;;;;;;;4223527;28;829;-54
2022/01/22 16:02:20;;;;;;;;;;;;;;;;;;4223513;28;1216;-53
2022/01/22 16:04:40;;;;;;;;;;;;;;;;;;4223406;28;1019;-53
2022/01/22 16:07:06;;;;;;;;;;;;;;;;;;4223368;28;1066;-53
2022/01/22 16:09:27;;;;;;;;;;;;;;;;;;4223251;28;1906;-53
2022/01/22 16:11:47;;;;;;;;;;;;;;;;;;4223612;28;939;-53
2022/01/22 16:14:08;;;;;;;;;;;;;;;;;;4223319;28;930;-53
2022/01/22 16:16:28;;;;;;;;;;;;;;;;;;4222333;28;1254;-54
2022/01/22 16:18:48;;;;;;;;;;;;;;;;;;4222917;28;961;-53
2022/01/22 16:21:08;;;;;;;;;;;;;;;;;;4223035;28;1027;-53
2022/01/22 16:23:29;;;;;;;;;;;;;;;;;;4223129;28;2052;-53
2022/01/22 16:25:49;;;;;;;;;;;;;;;;;;4221370;28;1394;-53
2022/01/22 16:28:09;;;;;;;;;;;;;;;;;;4222905;28;1910;-53
2022/01/22 16:30:30;;;;;;;;;;;;;;;;;;4222824;28;979;-53
2022/01/22 16:32:50;;;;;;;;;;;;;;;;;;4222077;28;1748;-53
2022/01/22 16:35:10;;;;;;;;;;;;;;;;;;4221604;28;1377;-53
2022/01/22 16:37:31;;;;;;;;;;;;;;;;;;4223176;28;1213;-53
2022/01/22 16:39:53;;;;;;;;;;;;;;;;;;4222909;28;974;-53
2022/01/22 16:42:16;;;;;;;;;;;;;;;;;;4223080;28;994;-53
2022/01/22 16:44:43;;;;;;;;;;;;;;;;;;4219257;28;1886;-52
2022/01/22 16:52:51;;;;;;;;;;;;;;;;;;4221616;28;1957;-55
2022/01/22 16:55:08;;;;;;;;;;;;;;;;;;4219325;28;1865;-54
2022/01/22 16:57:29;;;;;;;;;;;;;;;;;;4220729;28;1589;-54
2022/01/22 16:59:54;;;;;;;;;;;;;;;;;;4221107;28;2109;-54
2022/01/22 17:02:17;;;;;;;;;;;;;;;;;;4220637;28;1900;-54
2022/01/22 17:04:40;;;;;;;;;;;;;;;;;;4219119;28;1299;-54
2022/01/22 17:07:03;;;;;;;;;;;;;;;;;;4219640;28;1558;-55
2022/01/22 17:14:40;;;;;;;;;;;;;;;;;;4221866;28;1376;-54
2022/01/22 17:17:00;;;;;;;;;;;;;;;;;;4219583;28;1356;-54
2022/01/22 17:19:21;;;;;;;;;;;;;;;;;;4218768;28;1556;-55
2022/01/22 17:21:41;;;;;;;;;;;;;;;;;;4219831;28;1676;-54
2022/01/22 17:24:02;;;;;;;;;;;;;;;;;;4218898;28;1691;-54
2022/01/22 17:26:22;;;;;;;;;;;;;;;;;;4218914;28;1388;-54
2022/01/22 17:28:42;;;;;;;;;;;;;;;;;;4221617;28;1926;-54
2022/01/22 17:31:03;;;;;;;;;;;;;;;;;;4221037;28;2010;-55
2022/01/22 17:33:23;;;;;;;;;;;;;;;;;;4219111;28;1606;-52
2022/01/22 17:35:44;;;;;;;;;;;;;;;;;;4222348;28;1165;-52
2022/01/22 17:38:04;;;;;;;;;;;;;;;;;;4221563;28;1421;-52
2022/01/22 17:40:25;;;;;;;;;;;;;;;;;;4221906;28;820;-52
2022/01/22 17:42:46;;;;;;;;;;;;;;;;;;4221892;28;1016;-52
2022/01/22 17:45:08;;;;;;;;;;;;;;;;;;4221542;28;934;-52
2022/01/22 17:47:29;;;;;;;;;;;;;;;;;;4221564;28;1023;-53
2022/01/22 17:49:49;;;;;;;;;;;;;;;;;;4221486;28;1906;-52
2022/01/22 17:52:10;;;;;;;;;;;;;;;;;;4222125;28;1015;-52
2022/01/22 17:54:30;;;;;;;;;;;;;;;;;;4221612;28;997;-52
2022/01/22 17:56:50;;;;;;;;;;;;;;;;;;4221534;28;1005;-52
2022/01/22 17:59:10;;;;;;;;;;;;;;;;;;4220686;28;1334;-52
2022/01/22 18:01:31;;;;;;;;;;;;;;;;;;4221376;28;942;-52
2022/01/22 18:03:55;;;;;;;;;;;;;;;;;;4221504;28;997;-52
2022/01/22 18:06:15;;;;;;;;;;;;;;;;;;4221665;28;1077;-52
2022/01/22 18:08:36;;;;;;;;;;;;;;;;;;4217891;28;2552;-52
2022/01/22 18:11:00;;;;;;;;;;;;;;;;;;4220334;28;863;-52
2022/01/22 18:13:20;;;;;;;;;;;;;;;;;;4218881;28;1850;-52
2022/01/22 18:15:42;;;;;;;;;;;;;;;;;;4217127;28;1566;-52
2022/01/22 18:18:02;;;;;;;;;;;;;;;;;;4218016;27;1904;-52